sensor_id;sensor_type;location;lat;lon;timestamp;P1;durP1;ratioP1;P2;durP2;ratioP2
61003;SDS011;46889;37.310;13.582;2022-08-01T00:00:37;12.02;;;2.67;;
61003;SDS011;46889;37.310;13.582;2022-08-01T00:03:03;8.18;;;2.50;;
61003;SDS011;46889;37.310;13.582;2022-08-01T00:10:21;7.68;;;2.85;;
61003;SDS011;46889;37.310;13.582;2022-08-01T00:17:41;7.30;;;2.30;;
61003;SDS011;46889;37.310;13.582;2022-08-01T00:20:09;6.80;;;2.42;;
61003;SDS011;46889;37.310;13.582;2022-08-01T00:22:37;6.60;;;2.60;;
61003;SDS011;46889;37.310;13.582;2022-08-01T00:25:03;5.78;;;2.38;;
61003;SDS011;46889;37.310;13.582;2022-08-01T00:27:30;7.40;;;2.40;;
61003;SDS011;46889;37.310;13.582;2022-08-01T00:39:41;4.57;;;2.30;;
61003;SDS011;46889;37.310;13.582;2022-08-01T00:42:07;7.75;;;2.55;;
61003;SDS011;46889;37.310;13.582;2022-08-01T00:44:35;6.15;;;2.30;;
61003;SDS011;46889;37.310;13.582;2022-08-01T00:47:01;7.90;;;2.50;;
61003;SDS011;46889;37.310;13.582;2022-08-01T00:49:28;6.43;;;2.50;;
61003;SDS011;46889;37.310;13.582;2022-08-01T00:51:55;5.47;;;2.50;;
61003;SDS011;46889;37.310;13.582;2022-08-01T00:54:22;7.80;;;2.88;;
61003;SDS011;46889;37.310;13.582;2022-08-01T00:56:52;9.88;;;2.78;;
61003;SDS011;46889;37.310;13.582;2022-08-01T00:59:20;8.32;;;2.65;;
61003;SDS011;46889;37.310;13.582;2022-08-01T01:01:48;7.40;;;2.58;;
61003;SDS011;46889;37.310;13.582;2022-08-01T01:04:14;6.60;;;2.55;;
61003;SDS011;46889;37.310;13.582;2022-08-01T01:09:33;8.82;;;2.38;;
61003;SDS011;46889;37.310;13.582;2022-08-01T01:12:25;7.00;;;2.42;;
61003;SDS011;46889;37.310;13.582;2022-08-01T01:15:01;6.30;;;3.10;;
61003;SDS011;46889;37.310;13.582;2022-08-01T01:18:02;10.82;;;2.92;;
61003;SDS011;46889;37.310;13.582;2022-08-01T01:20:42;6.35;;;2.72;;
61003;SDS011;46889;37.310;13.582;2022-08-01T01:31:46;8.00;;;2.42;;
61003;SDS011;46889;37.310;13.582;2022-08-01T01:34:17;8.10;;;2.80;;
61003;SDS011;46889;37.310;13.582;2022-08-01T01:36:45;7.68;;;2.90;;
61003;SDS011;46889;37.310;13.582;2022-08-01T01:39:14;6.75;;;2.65;;
61003;SDS011;46889;37.310;13.582;2022-08-01T01:41:41;7.05;;;2.80;;
61003;SDS011;46889;37.310;13.582;2022-08-01T01:44:09;7.03;;;2.30;;
61003;SDS011;46889;37.310;13.582;2022-08-01T01:46:36;6.28;;;2.70;;
61003;SDS011;46889;37.310;13.582;2022-08-01T01:49:03;10.40;;;2.72;;
61003;SDS011;46889;37.310;13.582;2022-08-01T01:51:35;7.70;;;2.85;;
61003;SDS011;46889;37.310;13.582;2022-08-01T01:54:02;9.82;;;2.90;;
61003;SDS011;46889;37.310;13.582;2022-08-01T01:56:29;6.88;;;2.40;;
61003;SDS011;46889;37.310;13.582;2022-08-01T01:58:57;7.35;;;2.47;;
61003;SDS011;46889;37.310;13.582;2022-08-01T02:01:26;6.60;;;2.65;;
61003;SDS011;46889;37.310;13.582;2022-08-01T02:03:56;10.38;;;2.72;;
61003;SDS011;46889;37.310;13.582;2022-08-01T02:06:23;7.93;;;3.15;;
61003;SDS011;46889;37.310;13.582;2022-08-01T02:08:52;8.30;;;2.55;;
61003;SDS011;46889;37.310;13.582;2022-08-01T02:11:20;5.32;;;2.60;;
61003;SDS011;46889;37.310;13.582;2022-08-01T02:14:01;6.90;;;2.47;;
61003;SDS011;46889;37.310;13.582;2022-08-01T02:16:29;6.30;;;2.53;;
61003;SDS011;46889;37.310;13.582;2022-08-01T02:18:59;6.30;;;2.40;;
61003;SDS011;46889;37.310;13.582;2022-08-01T02:21:38;7.20;;;2.55;;
61003;SDS011;46889;37.310;13.582;2022-08-01T02:24:09;4.90;;;2.55;;
61003;SDS011;46889;37.310;13.582;2022-08-01T02:26:57;8.90;;;2.40;;
61003;SDS011;46889;37.310;13.582;2022-08-01T02:29:34;12.27;;;2.72;;
61003;SDS011;46889;37.310;13.582;2022-08-01T02:32:08;8.57;;;2.38;;
61003;SDS011;46889;37.310;13.582;2022-08-01T02:34:39;7.07;;;2.60;;
61003;SDS011;46889;37.310;13.582;2022-08-01T02:37:06;6.43;;;2.53;;
61003;SDS011;46889;37.310;13.582;2022-08-01T02:39:34;6.90;;;2.30;;
61003;SDS011;46889;37.310;13.582;2022-08-01T02:42:04;6.55;;;2.60;;
61003;SDS011;46889;37.310;13.582;2022-08-01T02:44:35;8.23;;;2.42;;
61003;SDS011;46889;37.310;13.582;2022-08-01T02:47:04;7.78;;;2.67;;
61003;SDS011;46889;37.310;13.582;2022-08-01T02:49:31;7.03;;;2.53;;
61003;SDS011;46889;37.310;13.582;2022-08-01T02:52:03;8.20;;;2.72;;
61003;SDS011;46889;37.310;13.582;2022-08-01T02:54:31;8.90;;;2.63;;
61003;SDS011;46889;37.310;13.582;2022-08-01T02:57:00;8.52;;;2.70;;
61003;SDS011;46889;37.310;13.582;2022-08-01T02:59:28;8.50;;;2.40;;
61003;SDS011;46889;37.310;13.582;2022-08-01T03:01:57;6.25;;;2.70;;
61003;SDS011;46889;37.310;13.582;2022-08-01T03:04:24;7.75;;;2.50;;
61003;SDS011;46889;37.310;13.582;2022-08-01T03:06:52;7.82;;;2.50;;
61003;SDS011;46889;37.310;13.582;2022-08-01T03:09:20;9.02;;;2.67;;
61003;SDS011;46889;37.310;13.582;2022-08-01T03:11:47;9.35;;;2.58;;
61003;SDS011;46889;37.310;13.582;2022-08-01T03:14:14;9.82;;;2.53;;
61003;SDS011;46889;37.310;13.582;2022-08-01T03:16:43;7.43;;;2.70;;
61003;SDS011;46889;37.310;13.582;2022-08-01T03:19:11;10.77;;;2.38;;
61003;SDS011;46889;37.310;13.582;2022-08-01T03:21:39;8.20;;;2.50;;
61003;SDS011;46889;37.310;13.582;2022-08-01T03:24:07;8.40;;;2.75;;
61003;SDS011;46889;37.310;13.582;2022-08-01T03:26:36;8.65;;;2.75;;
61003;SDS011;46889;37.310;13.582;2022-08-01T03:29:05;6.00;;;2.50;;
61003;SDS011;46889;37.310;13.582;2022-08-01T03:31:36;6.15;;;3.00;;
61003;SDS011;46889;37.310;13.582;2022-08-01T03:34:03;7.38;;;2.70;;
61003;SDS011;46889;37.310;13.582;2022-08-01T03:36:30;6.85;;;2.70;;
61003;SDS011;46889;37.310;13.582;2022-08-01T03:38:59;9.63;;;2.92;;
61003;SDS011;46889;37.310;13.582;2022-08-01T03:41:29;14.52;;;2.67;;
61003;SDS011;46889;37.310;13.582;2022-08-01T03:44:05;9.13;;;2.85;;
61003;SDS011;46889;37.310;13.582;2022-08-01T03:46:38;6.45;;;2.63;;
61003;SDS011;46889;37.310;13.582;2022-08-01T03:49:14;8.65;;;3.20;;
61003;SDS011;46889;37.310;13.582;2022-08-01T03:51:42;9.38;;;3.03;;
61003;SDS011;46889;37.310;13.582;2022-08-01T03:54:14;6.22;;;2.47;;
61003;SDS011;46889;37.310;13.582;2022-08-01T03:56:45;8.80;;;2.58;;
61003;SDS011;46889;37.310;13.582;2022-08-01T03:59:14;6.93;;;2.90;;
61003;SDS011;46889;37.310;13.582;2022-08-01T04:01:42;7.70;;;2.60;;
61003;SDS011;46889;37.310;13.582;2022-08-01T04:04:10;9.10;;;2.45;;
61003;SDS011;46889;37.310;13.582;2022-08-01T04:06:37;6.35;;;2.28;;
61003;SDS011;46889;37.310;13.582;2022-08-01T04:09:03;8.25;;;2.83;;
61003;SDS011;46889;37.310;13.582;2022-08-01T04:11:30;8.10;;;2.53;;
61003;SDS011;46889;37.310;13.582;2022-08-01T04:13:56;7.85;;;2.60;;
61003;SDS011;46889;37.310;13.582;2022-08-01T04:16:22;7.07;;;2.72;;
61003;SDS011;46889;37.310;13.582;2022-08-01T04:18:48;5.97;;;3.08;;
61003;SDS011;46889;37.310;13.582;2022-08-01T04:21:15;8.45;;;2.72;;
61003;SDS011;46889;37.310;13.582;2022-08-01T04:23:45;8.38;;;2.67;;
61003;SDS011;46889;37.310;13.582;2022-08-01T04:26:11;8.00;;;2.85;;
61003;SDS011;46889;37.310;13.582;2022-08-01T04:28:39;9.07;;;2.70;;
61003;SDS011;46889;37.310;13.582;2022-08-01T04:31:07;8.55;;;2.70;;
61003;SDS011;46889;37.310;13.582;2022-08-01T04:33:40;8.68;;;2.83;;
61003;SDS011;46889;37.310;13.582;2022-08-01T04:36:11;10.07;;;3.03;;
61003;SDS011;46889;37.310;13.582;2022-08-01T04:38:39;7.25;;;2.67;;
61003;SDS011;46889;37.310;13.582;2022-08-01T04:41:09;7.88;;;2.70;;
61003;SDS011;46889;37.310;13.582;2022-08-01T04:43:38;8.02;;;2.47;;
61003;SDS011;46889;37.310;13.582;2022-08-01T04:46:05;9.75;;;2.88;;
61003;SDS011;46889;37.310;13.582;2022-08-01T04:48:33;6.07;;;2.83;;
61003;SDS011;46889;37.310;13.582;2022-08-01T04:51:01;5.80;;;2.63;;
61003;SDS011;46889;37.310;13.582;2022-08-01T04:53:28;8.65;;;2.72;;
61003;SDS011;46889;37.310;13.582;2022-08-01T04:55:57;11.82;;;2.78;;
61003;SDS011;46889;37.310;13.582;2022-08-01T04:58:23;7.63;;;2.28;;
61003;SDS011;46889;37.310;13.582;2022-08-01T05:00:49;7.20;;;2.55;;
61003;SDS011;46889;37.310;13.582;2022-08-01T05:03:15;6.85;;;2.40;;
61003;SDS011;46889;37.310;13.582;2022-08-01T05:05:41;6.75;;;2.58;;
61003;SDS011;46889;37.310;13.582;2022-08-01T05:08:08;7.30;;;2.70;;
61003;SDS011;46889;37.310;13.582;2022-08-01T05:10:34;5.25;;;2.50;;
61003;SDS011;46889;37.310;13.582;2022-08-01T05:13:00;11.23;;;2.95;;
61003;SDS011;46889;37.310;13.582;2022-08-01T05:15:26;8.38;;;2.65;;
61003;SDS011;46889;37.310;13.582;2022-08-01T05:17:52;8.18;;;2.75;;
61003;SDS011;46889;37.310;13.582;2022-08-01T05:20:18;10.30;;;2.60;;
61003;SDS011;46889;37.310;13.582;2022-08-01T05:22:44;8.27;;;2.92;;
61003;SDS011;46889;37.310;13.582;2022-08-01T05:25:10;10.15;;;2.38;;
61003;SDS011;46889;37.310;13.582;2022-08-01T05:27:36;7.35;;;2.50;;
61003;SDS011;46889;37.310;13.582;2022-08-01T05:30:08;7.45;;;2.42;;
61003;SDS011;46889;37.310;13.582;2022-08-01T05:32:35;6.65;;;2.38;;
61003;SDS011;46889;37.310;13.582;2022-08-01T05:35:02;8.77;;;2.00;;
61003;SDS011;46889;37.310;13.582;2022-08-01T05:37:28;6.70;;;2.15;;
61003;SDS011;46889;37.310;13.582;2022-08-01T05:39:54;10.60;;;2.10;;
61003;SDS011;46889;37.310;13.582;2022-08-01T05:42:20;6.18;;;2.30;;
61003;SDS011;46889;37.310;13.582;2022-08-01T05:47:13;7.97;;;1.95;;
61003;SDS011;46889;37.310;13.582;2022-08-01T05:49:39;11.20;;;2.13;;
61003;SDS011;46889;37.310;13.582;2022-08-01T05:54:31;5.97;;;1.70;;
61003;SDS011;46889;37.310;13.582;2022-08-01T05:56:57;6.10;;;1.70;;
61003;SDS011;46889;37.310;13.582;2022-08-01T05:59:27;6.78;;;1.98;;
61003;SDS011;46889;37.310;13.582;2022-08-01T06:01:53;6.18;;;1.58;;
61003;SDS011;46889;37.310;13.582;2022-08-01T06:04:19;5.65;;;1.77;;
61003;SDS011;46889;37.310;13.582;2022-08-01T06:06:46;7.75;;;1.90;;
61003;SDS011;46889;37.310;13.582;2022-08-01T06:09:12;7.75;;;1.83;;
61003;SDS011;46889;37.310;13.582;2022-08-01T06:11:38;6.47;;;1.90;;
61003;SDS011;46889;37.310;13.582;2022-08-01T06:14:04;10.00;;;1.77;;
61003;SDS011;46889;37.310;13.582;2022-08-01T06:16:30;7.25;;;2.28;;
61003;SDS011;46889;37.310;13.582;2022-08-01T06:18:56;4.63;;;1.45;;
61003;SDS011;46889;37.310;13.582;2022-08-01T06:21:22;7.18;;;2.35;;
61003;SDS011;46889;37.310;13.582;2022-08-01T06:23:48;5.80;;;1.90;;
61003;SDS011;46889;37.310;13.582;2022-08-01T06:26:17;9.13;;;1.60;;
61003;SDS011;46889;37.310;13.582;2022-08-01T06:28:43;6.80;;;1.77;;
61003;SDS011;46889;37.310;13.582;2022-08-01T06:31:09;6.72;;;1.60;;
61003;SDS011;46889;37.310;13.582;2022-08-01T06:33:37;11.10;;;1.88;;
61003;SDS011;46889;37.310;13.582;2022-08-01T06:36:03;5.75;;;1.60;;
61003;SDS011;46889;37.310;13.582;2022-08-01T06:38:29;7.80;;;1.65;;
61003;SDS011;46889;37.310;13.582;2022-08-01T06:40:55;5.35;;;1.27;;
61003;SDS011;46889;37.310;13.582;2022-08-01T06:43:22;6.10;;;1.60;;
61003;SDS011;46889;37.310;13.582;2022-08-01T06:45:48;7.35;;;1.60;;
61003;SDS011;46889;37.310;13.582;2022-08-01T06:48:14;7.53;;;1.88;;
61003;SDS011;46889;37.310;13.582;2022-08-01T06:50:40;7.93;;;1.67;;
61003;SDS011;46889;37.310;13.582;2022-08-01T06:53:07;6.75;;;1.67;;
61003;SDS011;46889;37.310;13.582;2022-08-01T06:55:33;8.30;;;1.75;;
61003;SDS011;46889;37.310;13.582;2022-08-01T06:57:59;17.95;;;2.55;;
61003;SDS011;46889;37.310;13.582;2022-08-01T07:00:25;5.43;;;1.60;;
61003;SDS011;46889;37.310;13.582;2022-08-01T07:02:55;4.45;;;1.60;;
61003;SDS011;46889;37.310;13.582;2022-08-01T07:05:24;5.97;;;1.50;;
61003;SDS011;46889;37.310;13.582;2022-08-01T07:07:50;8.93;;;2.00;;
61003;SDS011;46889;37.310;13.582;2022-08-01T07:10:16;10.52;;;1.85;;
61003;SDS011;46889;37.310;13.582;2022-08-01T07:12:43;9.07;;;1.98;;
61003;SDS011;46889;37.310;13.582;2022-08-01T07:15:10;10.65;;;1.60;;
61003;SDS011;46889;37.310;13.582;2022-08-01T07:17:40;9.60;;;2.08;;
61003;SDS011;46889;37.310;13.582;2022-08-01T07:20:08;8.50;;;1.55;;
61003;SDS011;46889;37.310;13.582;2022-08-01T07:22:36;7.15;;;1.52;;
61003;SDS011;46889;37.310;13.582;2022-08-01T07:25:03;6.88;;;1.60;;
61003;SDS011;46889;37.310;13.582;2022-08-01T07:27:30;9.70;;;1.65;;
61003;SDS011;46889;37.310;13.582;2022-08-01T07:29:56;6.80;;;1.75;;
61003;SDS011;46889;37.310;13.582;2022-08-01T07:32:22;5.82;;;1.60;;
61003;SDS011;46889;37.310;13.582;2022-08-01T07:34:48;8.55;;;2.17;;
61003;SDS011;46889;37.310;13.582;2022-08-01T07:37:14;5.18;;;1.77;;
61003;SDS011;46889;37.310;13.582;2022-08-01T07:39:41;5.20;;;1.65;;
61003;SDS011;46889;37.310;13.582;2022-08-01T07:42:07;5.28;;;1.70;;
61003;SDS011;46889;37.310;13.582;2022-08-01T07:44:33;8.48;;;1.70;;
61003;SDS011;46889;37.310;13.582;2022-08-01T07:46:59;5.60;;;1.92;;
61003;SDS011;46889;37.310;13.582;2022-08-01T07:49:26;6.30;;;1.98;;
61003;SDS011;46889;37.310;13.582;2022-08-01T07:51:52;7.47;;;1.60;;
61003;SDS011;46889;37.310;13.582;2022-08-01T07:54:19;6.55;;;1.70;;
61003;SDS011;46889;37.310;13.582;2022-08-01T07:56:45;8.13;;;1.92;;
61003;SDS011;46889;37.310;13.582;2022-08-01T07:59:11;16.25;;;2.40;;
61003;SDS011;46889;37.310;13.582;2022-08-01T08:01:37;7.65;;;2.47;;
61003;SDS011;46889;37.310;13.582;2022-08-01T08:04:03;7.88;;;2.25;;
61003;SDS011;46889;37.310;13.582;2022-08-01T08:06:29;5.82;;;1.95;;
61003;SDS011;46889;37.310;13.582;2022-08-01T08:08:55;6.72;;;2.17;;
61003;SDS011;46889;37.310;13.582;2022-08-01T08:11:21;7.53;;;1.90;;
61003;SDS011;46889;37.310;13.582;2022-08-01T08:13:47;11.40;;;2.75;;
61003;SDS011;46889;37.310;13.582;2022-08-01T08:16:13;7.80;;;2.13;;
61003;SDS011;46889;37.310;13.582;2022-08-01T08:18:40;8.60;;;2.28;;
61003;SDS011;46889;37.310;13.582;2022-08-01T08:21:06;8.27;;;2.22;;
61003;SDS011;46889;37.310;13.582;2022-08-01T08:23:32;9.23;;;2.63;;
61003;SDS011;46889;37.310;13.582;2022-08-01T08:26:16;9.02;;;2.35;;
61003;SDS011;46889;37.310;13.582;2022-08-01T08:28:42;10.48;;;2.78;;
61003;SDS011;46889;37.310;13.582;2022-08-01T08:31:08;15.55;;;3.75;;
61003;SDS011;46889;37.310;13.582;2022-08-01T08:33:35;12.73;;;3.47;;
61003;SDS011;46889;37.310;13.582;2022-08-01T08:36:01;13.93;;;3.42;;
61003;SDS011;46889;37.310;13.582;2022-08-01T08:38:27;6.70;;;2.30;;
61003;SDS011;46889;37.310;13.582;2022-08-01T08:40:53;9.65;;;2.28;;
61003;SDS011;46889;37.310;13.582;2022-08-01T08:43:20;6.90;;;2.08;;
61003;SDS011;46889;37.310;13.582;2022-08-01T08:45:49;9.35;;;2.55;;
61003;SDS011;46889;37.310;13.582;2022-08-01T08:48:16;6.88;;;2.30;;
61003;SDS011;46889;37.310;13.582;2022-08-01T08:50:43;7.80;;;2.30;;
61003;SDS011;46889;37.310;13.582;2022-08-01T08:53:12;10.13;;;2.40;;
61003;SDS011;46889;37.310;13.582;2022-08-01T08:55:43;6.18;;;1.98;;
61003;SDS011;46889;37.310;13.582;2022-08-01T08:58:11;5.95;;;1.98;;
61003;SDS011;46889;37.310;13.582;2022-08-01T09:00:40;8.52;;;2.03;;
61003;SDS011;46889;37.310;13.582;2022-08-01T09:03:06;7.13;;;2.25;;
61003;SDS011;46889;37.310;13.582;2022-08-01T09:05:32;8.48;;;2.33;;
61003;SDS011;46889;37.310;13.582;2022-08-01T09:07:59;8.60;;;2.35;;
61003;SDS011;46889;37.310;13.582;2022-08-01T09:10:25;13.73;;;2.20;;
61003;SDS011;46889;37.310;13.582;2022-08-01T09:13:04;8.73;;;2.45;;
61003;SDS011;46889;37.310;13.582;2022-08-01T09:18:25;7.15;;;2.17;;
61003;SDS011;46889;37.310;13.582;2022-08-01T09:23:32;6.25;;;1.73;;
61003;SDS011;46889;37.310;13.582;2022-08-01T09:26:05;10.30;;;2.40;;
61003;SDS011;46889;37.310;13.582;2022-08-01T09:28:32;13.45;;;2.70;;
61003;SDS011;46889;37.310;13.582;2022-08-01T09:30:58;6.07;;;2.17;;
61003;SDS011;46889;37.310;13.582;2022-08-01T09:33:49;8.93;;;2.03;;
61003;SDS011;46889;37.310;13.582;2022-08-01T09:36:21;6.50;;;2.10;;
61003;SDS011;46889;37.310;13.582;2022-08-01T09:38:51;9.02;;;2.00;;
61003;SDS011;46889;37.310;13.582;2022-08-01T09:41:31;7.32;;;2.03;;
61003;SDS011;46889;37.310;13.582;2022-08-01T09:43:58;5.10;;;1.90;;
61003;SDS011;46889;37.310;13.582;2022-08-01T09:46:24;10.25;;;2.25;;
61003;SDS011;46889;37.310;13.582;2022-08-01T09:48:57;7.85;;;1.98;;
61003;SDS011;46889;37.310;13.582;2022-08-01T09:51:35;5.20;;;1.98;;
61003;SDS011;46889;37.310;13.582;2022-08-01T09:54:03;6.13;;;1.70;;
61003;SDS011;46889;37.310;13.582;2022-08-01T09:56:37;4.85;;;1.90;;
61003;SDS011;46889;37.310;13.582;2022-08-01T09:59:05;10.73;;;2.30;;
61003;SDS011;46889;37.310;13.582;2022-08-01T10:02:04;5.75;;;2.00;;
61003;SDS011;46889;37.310;13.582;2022-08-01T10:04:23;8.43;;;2.03;;
61003;SDS011;46889;37.310;13.582;2022-08-01T10:06:50;8.05;;;2.40;;
61003;SDS011;46889;37.310;13.582;2022-08-01T10:09:31;7.93;;;1.90;;
61003;SDS011;46889;37.310;13.582;2022-08-01T10:12:02;4.95;;;1.90;;
61003;SDS011;46889;37.310;13.582;2022-08-01T10:14:29;5.72;;;2.13;;
61003;SDS011;46889;37.310;13.582;2022-08-01T10:16:56;7.57;;;2.28;;
61003;SDS011;46889;37.310;13.582;2022-08-01T10:19:24;7.22;;;2.08;;
61003;SDS011;46889;37.310;13.582;2022-08-01T10:21:52;7.53;;;2.40;;
61003;SDS011;46889;37.310;13.582;2022-08-01T10:24:22;8.52;;;2.42;;
61003;SDS011;46889;37.310;13.582;2022-08-01T10:26:53;6.00;;;1.98;;
61003;SDS011;46889;37.310;13.582;2022-08-01T10:29:25;5.43;;;1.70;;
61003;SDS011;46889;37.310;13.582;2022-08-01T10:31:52;7.22;;;2.15;;
61003;SDS011;46889;37.310;13.582;2022-08-01T10:34:18;11.85;;;2.88;;
61003;SDS011;46889;37.310;13.582;2022-08-01T10:36:46;7.30;;;1.90;;
61003;SDS011;46889;37.310;13.582;2022-08-01T10:39:13;11.07;;;2.00;;
61003;SDS011;46889;37.310;13.582;2022-08-01T10:41:39;6.13;;;2.03;;
61003;SDS011;46889;37.310;13.582;2022-08-01T10:44:06;7.35;;;2.00;;
61003;SDS011;46889;37.310;13.582;2022-08-01T10:46:42;7.85;;;2.03;;
61003;SDS011;46889;37.310;13.582;2022-08-01T10:49:14;7.07;;;2.28;;
61003;SDS011;46889;37.310;13.582;2022-08-01T10:51:42;7.05;;;1.98;;
61003;SDS011;46889;37.310;13.582;2022-08-01T10:54:10;8.57;;;1.92;;
61003;SDS011;46889;37.310;13.582;2022-08-01T10:56:45;8.80;;;2.75;;
61003;SDS011;46889;37.310;13.582;2022-08-01T10:59:28;8.80;;;2.13;;
61003;SDS011;46889;37.310;13.582;2022-08-01T11:02:04;4.57;;;1.55;;
61003;SDS011;46889;37.310;13.582;2022-08-01T11:07:42;5.80;;;1.92;;
61003;SDS011;46889;37.310;13.582;2022-08-01T11:10:16;5.55;;;1.80;;
61003;SDS011;46889;37.310;13.582;2022-08-01T11:12:50;18.98;;;2.30;;
61003;SDS011;46889;37.310;13.582;2022-08-01T11:15:18;9.52;;;2.00;;
61003;SDS011;46889;37.310;13.582;2022-08-01T11:17:52;8.95;;;2.20;;
61003;SDS011;46889;37.310;13.582;2022-08-01T11:20:21;6.47;;;2.10;;
61003;SDS011;46889;37.310;13.582;2022-08-01T11:30:44;8.18;;;1.90;;
61003;SDS011;46889;37.310;13.582;2022-08-01T11:33:12;5.50;;;1.98;;
61003;SDS011;46889;37.310;13.582;2022-08-01T11:38:43;5.63;;;1.85;;
61003;SDS011;46889;37.310;13.582;2022-08-01T11:41:12;6.85;;;2.05;;
61003;SDS011;46889;37.310;13.582;2022-08-01T11:57:12;6.43;;;1.70;;
61003;SDS011;46889;37.310;13.582;2022-08-01T11:59:53;5.55;;;2.30;;
61003;SDS011;46889;37.310;13.582;2022-08-01T12:02:24;5.45;;;1.80;;
61003;SDS011;46889;37.310;13.582;2022-08-01T12:04:58;10.57;;;2.28;;
61003;SDS011;46889;37.310;13.582;2022-08-01T12:07:27;15.02;;;2.50;;
61003;SDS011;46889;37.310;13.582;2022-08-01T12:10:03;6.68;;;1.83;;
61003;SDS011;46889;37.310;13.582;2022-08-01T12:12:31;6.45;;;1.83;;
61003;SDS011;46889;37.310;13.582;2022-08-01T12:15:00;8.75;;;2.10;;
61003;SDS011;46889;37.310;13.582;2022-08-01T12:17:29;8.38;;;1.80;;
61003;SDS011;46889;37.310;13.582;2022-08-01T12:19:55;9.00;;;2.08;;
61003;SDS011;46889;37.310;13.582;2022-08-01T12:22:22;8.80;;;2.20;;
61003;SDS011;46889;37.310;13.582;2022-08-01T12:24:49;9.35;;;2.30;;
61003;SDS011;46889;37.310;13.582;2022-08-01T12:29:55;5.38;;;2.00;;
61003;SDS011;46889;37.310;13.582;2022-08-01T12:32:26;7.07;;;2.08;;
61003;SDS011;46889;37.310;13.582;2022-08-01T12:34:56;3.45;;;1.83;;
61003;SDS011;46889;37.310;13.582;2022-08-01T12:37:26;6.60;;;1.90;;
61003;SDS011;46889;37.310;13.582;2022-08-01T12:39:52;5.43;;;1.75;;
61003;SDS011;46889;37.310;13.582;2022-08-01T12:42:19;8.77;;;2.10;;
61003;SDS011;46889;37.310;13.582;2022-08-01T12:44:46;6.63;;;1.90;;
61003;SDS011;46889;37.310;13.582;2022-08-01T12:47:16;7.72;;;1.90;;
61003;SDS011;46889;37.310;13.582;2022-08-01T12:49:45;5.63;;;1.90;;
61003;SDS011;46889;37.310;13.582;2022-08-01T12:52:12;9.68;;;2.20;;
61003;SDS011;46889;37.310;13.582;2022-08-01T12:55:22;13.07;;;2.28;;
61003;SDS011;46889;37.310;13.582;2022-08-01T12:57:35;5.80;;;1.90;;
61003;SDS011;46889;37.310;13.582;2022-08-01T13:00:10;5.55;;;2.03;;
61003;SDS011;46889;37.310;13.582;2022-08-01T13:02:39;15.10;;;2.22;;
61003;SDS011;46889;37.310;13.582;2022-08-01T13:05:05;7.07;;;2.03;;
61003;SDS011;46889;37.310;13.582;2022-08-01T13:10:12;6.88;;;2.05;;
61003;SDS011;46889;37.310;13.582;2022-08-01T13:12:40;4.85;;;1.95;;
61003;SDS011;46889;37.310;13.582;2022-08-01T13:15:20;8.60;;;2.00;;
61003;SDS011;46889;37.310;13.582;2022-08-01T13:17:57;5.00;;;1.70;;
61003;SDS011;46889;37.310;13.582;2022-08-01T13:23:09;6.47;;;2.20;;
61003;SDS011;46889;37.310;13.582;2022-08-01T13:25:46;6.10;;;2.08;;
61003;SDS011;46889;37.310;13.582;2022-08-01T13:28:20;6.18;;;1.95;;
61003;SDS011;46889;37.310;13.582;2022-08-01T13:30:51;6.38;;;1.77;;
61003;SDS011;46889;37.310;13.582;2022-08-01T13:33:23;11.68;;;2.40;;
61003;SDS011;46889;37.310;13.582;2022-08-01T13:35:51;6.63;;;2.22;;
61003;SDS011;46889;37.310;13.582;2022-08-01T13:38:21;5.78;;;2.10;;
61003;SDS011;46889;37.310;13.582;2022-08-01T13:41:07;9.10;;;2.40;;
61003;SDS011;46889;37.310;13.582;2022-08-01T13:43:33;4.35;;;2.00;;
61003;SDS011;46889;37.310;13.582;2022-08-01T13:46:00;5.78;;;1.73;;
61003;SDS011;46889;37.310;13.582;2022-08-01T13:48:29;10.40;;;2.33;;
61003;SDS011;46889;37.310;13.582;2022-08-01T13:50:55;7.28;;;2.20;;
61003;SDS011;46889;37.310;13.582;2022-08-01T13:53:22;9.23;;;2.20;;
61003;SDS011;46889;37.310;13.582;2022-08-01T13:55:48;10.50;;;2.60;;
61003;SDS011;46889;37.310;13.582;2022-08-01T14:00:40;5.35;;;1.77;;
61003;SDS011;46889;37.310;13.582;2022-08-01T14:03:06;7.28;;;2.33;;
61003;SDS011;46889;37.310;13.582;2022-08-01T14:05:34;6.00;;;2.17;;
61003;SDS011;46889;37.310;13.582;2022-08-01T14:08:01;7.03;;;1.80;;
61003;SDS011;46889;37.310;13.582;2022-08-01T14:10:27;4.70;;;2.42;;
61003;SDS011;46889;37.310;13.582;2022-08-01T14:12:57;11.20;;;2.60;;
61003;SDS011;46889;37.310;13.582;2022-08-01T14:15:24;7.45;;;1.90;;
61003;SDS011;46889;37.310;13.582;2022-08-01T14:17:50;4.32;;;1.90;;
61003;SDS011;46889;37.310;13.582;2022-08-01T14:20:16;6.13;;;3.00;;
61003;SDS011;46889;37.310;13.582;2022-08-01T14:22:47;4.47;;;2.00;;
61003;SDS011;46889;37.310;13.582;2022-08-01T14:25:14;10.25;;;2.28;;
61003;SDS011;46889;37.310;13.582;2022-08-01T14:27:40;7.65;;;2.20;;
61003;SDS011;46889;37.310;13.582;2022-08-01T14:30:09;7.30;;;2.20;;
61003;SDS011;46889;37.310;13.582;2022-08-01T14:32:36;7.85;;;2.00;;
61003;SDS011;46889;37.310;13.582;2022-08-01T14:35:04;6.00;;;2.38;;
61003;SDS011;46889;37.310;13.582;2022-08-01T14:37:31;9.25;;;2.28;;
61003;SDS011;46889;37.310;13.582;2022-08-01T14:39:58;9.90;;;1.95;;
61003;SDS011;46889;37.310;13.582;2022-08-01T14:42:29;6.25;;;1.88;;
61003;SDS011;46889;37.310;13.582;2022-08-01T14:47:21;7.32;;;2.38;;
61003;SDS011;46889;37.310;13.582;2022-08-01T14:49:47;9.18;;;2.00;;
61003;SDS011;46889;37.310;13.582;2022-08-01T14:52:13;11.77;;;2.30;;
61003;SDS011;46889;37.310;13.582;2022-08-01T14:57:05;8.27;;;2.00;;
61003;SDS011;46889;37.310;13.582;2022-08-01T15:01:57;5.10;;;1.83;;
61003;SDS011;46889;37.310;13.582;2022-08-01T15:06:48;11.18;;;4.40;;
61003;SDS011;46889;37.310;13.582;2022-08-01T15:11:40;9.52;;;2.05;;
61003;SDS011;46889;37.310;13.582;2022-08-01T15:16:51;5.45;;;1.70;;
61003;SDS011;46889;37.310;13.582;2022-08-01T15:19:17;9.32;;;2.00;;
61003;SDS011;46889;37.310;13.582;2022-08-01T15:24:09;4.18;;;1.60;;
61003;SDS011;46889;37.310;13.582;2022-08-01T15:29:00;4.32;;;1.80;;
61003;SDS011;46889;37.310;13.582;2022-08-01T15:33:52;4.13;;;1.70;;
61003;SDS011;46889;37.310;13.582;2022-08-01T15:36:19;6.28;;;1.95;;
61003;SDS011;46889;37.310;13.582;2022-08-01T15:41:11;6.70;;;1.65;;
61003;SDS011;46889;37.310;13.582;2022-08-01T15:46:03;8.43;;;2.05;;
61003;SDS011;46889;37.310;13.582;2022-08-01T15:48:29;7.43;;;1.85;;
61003;SDS011;46889;37.310;13.582;2022-08-01T15:53:21;4.38;;;2.28;;
61003;SDS011;46889;37.310;13.582;2022-08-01T15:58:13;5.70;;;2.05;;
61003;SDS011;46889;37.310;13.582;2022-08-01T16:00:39;6.95;;;1.95;;
61003;SDS011;46889;37.310;13.582;2022-08-01T16:05:34;6.15;;;1.88;;
61003;SDS011;46889;37.310;13.582;2022-08-01T16:08:01;9.13;;;2.25;;
61003;SDS011;46889;37.310;13.582;2022-08-01T16:10:28;8.52;;;2.10;;
61003;SDS011;46889;37.310;13.582;2022-08-01T16:12:55;7.75;;;2.10;;
61003;SDS011;46889;37.310;13.582;2022-08-01T16:17:47;9.18;;;1.95;;
61003;SDS011;46889;37.310;13.582;2022-08-01T16:22:39;6.97;;;2.22;;
61003;SDS011;46889;37.310;13.582;2022-08-01T16:27:32;7.05;;;2.20;;
61003;SDS011;46889;37.310;13.582;2022-08-01T16:32:24;5.25;;;1.80;;
61003;SDS011;46889;37.310;13.582;2022-08-01T16:37:16;5.95;;;1.90;;
61003;SDS011;46889;37.310;13.582;2022-08-01T16:42:09;5.43;;;1.80;;
61003;SDS011;46889;37.310;13.582;2022-08-01T16:44:35;5.70;;;2.00;;
61003;SDS011;46889;37.310;13.582;2022-08-01T16:47:02;6.03;;;1.90;;
61003;SDS011;46889;37.310;13.582;2022-08-01T16:49:29;8.90;;;1.92;;